Hefei, Anhui

8:25 AM CST on September 03, 2014 (GMT +0800)
Luogang | Change Station
CLOSE
Current Station
Airport
Location: Hefei,
Elevation: 89 ft
Nearby Weather Stations

Elev 89 ft 31.78 °N, 117.30 °E | Updated 25 minutes ago

Mostly Cloudy
Mostly Cloudy
72 °F
Feels Like 72 °F
N
11
Wind Variable Wind from WNW

Today
High -- | Low -- °F
--% Chance of Precip.
Yesterday
High -- | Low -- °F
Precip. -- in
5:47 AM 6:32 PM
First Quarter, 56% visible
Pressure 29.83 in
Visibility 2.8 miles
Clouds Mostly Cloudy 2600 ft
Dew Point 68 °F
Humidity 88%
Rainfall 0.00 in
Snow Depth Not available.
UV 0 out of 12
Pollen Not available.
Air Quality Not available.
Flu Activity Not available.
METAR ZSOF 030000Z 30005MPS 4500 BR BKN026 22/20 Q1010 NOSIG

More Conditions Fewer Conditions

Pressure 29.83 in
Visibility 2.8 miles
Clouds Mostly Cloudy 2600 ft
Dew Point 68 °F
Humidity 88%
Rainfall 0.00 in
Snow Depth Not available.
UV 0 out of 12
Pollen Not available.
Air Quality Not available.
Flu Activity Not available.
METAR ZSOF 030000Z 30005MPS 4500 BR BKN026 22/20 Q1010 NOSIG

More Conditions Fewer Conditions

10-Day Weather Forecast

Almanac

Astronomy

Sep. 03, 2014 Rise Set
Actual Time 5:47 AM CST 6:32 PM CST
Civil Twilight 5:22 AM CST 6:57 PM CST
Nautical Twilight 4:53 AM CST 7:26 PM CST
Astronomical Twilight 4:23 AM CST 7:56 PM CST
Moon 1:30 PM CST No Moon Set
Length of Visible Light 13h 35m
Length of Day
12h 45m
Tomorrow will be 1m 51s shorter.
First Quarter, 56% of the Moon is Illuminated
Sep 2
First Quarter
Sep 8
Full
Sep 15
Last Quarter
Sep 24
New
Oct 1
First Quarter

Yesterday's Extremes

Country Highs Country Lows

Community

WunderPhotos

Upload Photos

1,749,816 photos uploaded!

Nearby

Snow Depth

Not available.

Earthquake Activity

City Distance Mag. Time & Date
No recent earthquake activity has been reported nearby.
Minimum magnitude displayed is 2.5.

Coastal Water Temperatures

Place Temperature
No Stations Reporting

Nearby Weather Stations